createdAt,value
2023-03-03T00:00:13.910Z,41.97
2023-03-03T00:02:41.287Z,41.72
2023-03-03T00:05:08.723Z,41.03
2023-03-03T00:07:35.761Z,38.72
2023-03-03T00:10:02.765Z,43.20
2023-03-03T00:12:31.476Z,41.10
2023-03-03T00:14:58.448Z,40.92
2023-03-03T00:17:28.309Z,38.53
2023-03-03T00:19:55.686Z,40.67
2023-03-03T00:22:38.692Z,41.15
2023-03-03T00:25:30.603Z,39.50
2023-03-03T00:28:22.633Z,40.08
2023-03-03T00:30:50.528Z,38.85
2023-03-03T00:33:23.544Z,38.05
2023-03-03T00:35:50.499Z,37.47
2023-03-03T00:38:18.818Z,36.20
2023-03-03T00:40:47.073Z,37.97
2023-03-03T00:43:24.171Z,36.83
2023-03-03T00:45:53.305Z,36.80
2023-03-03T00:48:43.226Z,38.97
2023-03-03T00:51:34.430Z,38.97
2023-03-03T00:54:01.395Z,38.28
2023-03-03T00:56:28.397Z,40.08
2023-03-03T00:58:55.250Z,37.67
2023-03-03T01:01:22.360Z,41.15
2023-03-03T01:03:49.625Z,33.15
2023-03-03T01:06:17.010Z,38.25
2023-03-03T01:08:44.103Z,37.30
2023-03-03T01:11:16.473Z,35.38
2023-03-03T01:13:46.294Z,36.70
2023-03-03T01:16:13.650Z,34.55
2023-03-03T01:18:42.188Z,38.22
2023-03-03T01:21:10.267Z,36.45
2023-03-03T01:23:37.576Z,36.72
2023-03-03T01:26:05.044Z,35.92
2023-03-03T01:28:33.809Z,35.90
2023-03-03T01:31:02.626Z,36.33
2023-03-03T01:33:31.658Z,38.85
2023-03-03T01:35:59.102Z,35.38
2023-03-03T01:38:26.849Z,36.03
2023-03-03T01:40:56.517Z,38.15
2023-03-03T01:43:26.090Z,38.33
2023-03-03T01:45:53.915Z,35.30
2023-03-03T01:48:31.499Z,35.90
2023-03-03T01:51:02.691Z,33.65
2023-03-03T01:53:43.304Z,36.75
2023-03-03T01:56:10.601Z,37.05
2023-03-03T01:58:59.161Z,39.78
2023-03-03T02:01:29.106Z,37.97
2023-03-03T02:03:56.240Z,40.63
2023-03-03T02:06:28.589Z,34.78
2023-03-03T02:09:15.476Z,36.55
2023-03-03T02:11:44.339Z,38.13
2023-03-03T02:14:12.981Z,35.25
2023-03-03T02:16:41.598Z,38.28
2023-03-03T02:19:20.572Z,37.85
2023-03-03T02:21:47.487Z,39.08
2023-03-03T02:24:27.787Z,40.55
2023-03-03T02:26:55.561Z,45.50
2023-03-03T02:29:22.745Z,42.65
2023-03-03T02:31:49.838Z,39.35
2023-03-03T02:34:17.154Z,35.95
2023-03-03T02:36:44.178Z,41.00
2023-03-03T02:39:23.549Z,42.40
2023-03-03T02:42:06.128Z,40.08
2023-03-03T02:44:34.030Z,48.75
2023-03-03T02:47:01.039Z,46.42
2023-03-03T02:49:32.230Z,44.73
2023-03-03T02:52:00.018Z,42.42
2023-03-03T02:54:30.991Z,43.50
2023-03-03T02:56:58.957Z,49.85
2023-03-03T02:59:25.870Z,45.22
2023-03-03T03:01:55.183Z,43.75
2023-03-03T03:04:27.225Z,46.70
2023-03-03T03:06:55.082Z,45.00
2023-03-03T03:09:24.672Z,46.42
2023-03-03T03:11:51.826Z,50.25
2023-03-03T03:14:18.683Z,48.90
2023-03-03T03:16:45.686Z,47.03
2023-03-03T03:19:12.893Z,51.40
2023-03-03T03:21:39.948Z,58.53
2023-03-03T03:24:07.294Z,51.92
2023-03-03T03:26:34.404Z,51.80
2023-03-03T03:29:01.557Z,52.35
2023-03-03T03:31:28.578Z,49.38
2023-03-03T03:33:55.627Z,48.90
2023-03-03T03:36:22.791Z,52.47
2023-03-03T03:38:49.949Z,51.10
2023-03-03T03:41:17.049Z,55.95
2023-03-03T03:43:43.927Z,52.08
2023-03-03T03:46:11.046Z,52.15
2023-03-03T03:48:38.157Z,54.92
2023-03-03T03:51:05.524Z,52.10
2023-03-03T03:53:32.802Z,47.17
2023-03-03T03:55:59.792Z,49.97
2023-03-03T03:58:26.688Z,53.08
2023-03-03T04:00:54.901Z,55.77
2023-03-03T04:03:22.032Z,56.60
2023-03-03T04:05:49.310Z,50.35
2023-03-03T04:08:19.466Z,59.85
2023-03-03T04:10:46.472Z,49.20
2023-03-03T04:13:13.639Z,48.95
2023-03-03T04:15:41.484Z,51.15
2023-03-03T04:18:08.589Z,45.53
2023-03-03T04:20:35.661Z,45.08
2023-03-03T04:23:03.083Z,48.08
2023-03-03T04:25:30.104Z,44.78
2023-03-03T04:27:57.202Z,46.05
2023-03-03T04:30:24.070Z,45.67
2023-03-03T04:32:51.159Z,42.85
2023-03-03T04:35:18.178Z,44.92
2023-03-03T04:37:45.070Z,40.35
2023-03-03T04:40:16.622Z,40.92
2023-03-03T04:42:43.421Z,41.70
2023-03-03T04:45:10.879Z,40.72
2023-03-03T04:47:38.460Z,44.75
2023-03-03T04:50:09.640Z,42.17
2023-03-03T04:52:36.914Z,40.70
2023-03-03T04:55:04.443Z,37.75
2023-03-03T04:57:32.064Z,36.53
2023-03-03T04:59:58.900Z,37.60
2023-03-03T05:02:25.847Z,36.35
2023-03-03T05:04:53.489Z,36.03
2023-03-03T05:07:21.015Z,33.15
2023-03-03T05:09:48.198Z,33.58
2023-03-03T05:12:15.204Z,34.92
2023-03-03T05:14:42.590Z,36.40
2023-03-03T05:17:09.845Z,33.35
2023-03-03T05:19:36.934Z,35.97
2023-03-03T05:22:04.189Z,32.90
2023-03-03T05:24:31.257Z,34.60
2023-03-03T05:26:58.305Z,37.25
2023-03-03T05:29:25.303Z,29.48
2023-03-03T05:31:52.252Z,30.25
2023-03-03T05:34:19.269Z,29.83
2023-03-03T05:36:46.247Z,32.83
2023-03-03T05:39:13.223Z,29.60
2023-03-03T05:41:40.406Z,27.77
2023-03-03T05:44:07.674Z,29.55
2023-03-03T05:46:34.740Z,29.58
2023-03-03T05:49:01.971Z,28.45
2023-03-03T05:51:33.233Z,30.20
2023-03-03T05:54:00.390Z,29.27
2023-03-03T05:56:27.546Z,28.17
2023-03-03T05:58:54.685Z,32.60
2023-03-03T06:01:22.202Z,28.53
2023-03-03T06:03:51.967Z,27.98
2023-03-03T06:06:19.438Z,29.95
2023-03-03T06:08:46.613Z,29.58
2023-03-03T06:11:13.952Z,26.08
2023-03-03T06:13:42.793Z,29.57
2023-03-03T06:16:09.943Z,27.87
2023-03-03T06:18:37.402Z,28.33
2023-03-03T06:21:04.267Z,31.03
2023-03-03T06:23:31.209Z,26.33
2023-03-03T06:25:58.378Z,27.25
2023-03-03T06:28:25.684Z,27.20
2023-03-03T06:30:56.478Z,31.42
2023-03-03T06:33:23.912Z,30.30
2023-03-03T06:35:52.527Z,33.28
2023-03-03T06:38:20.072Z,31.13
2023-03-03T06:40:47.754Z,29.48
2023-03-03T06:43:14.883Z,29.40
2023-03-03T06:45:42.037Z,33.97
2023-03-03T06:48:09.039Z,31.45
2023-03-03T06:50:36.068Z,30.45
2023-03-03T06:53:15.060Z,28.95
2023-03-03T06:55:45.132Z,26.17
2023-03-03T06:58:18.396Z,27.98
2023-03-03T07:00:54.209Z,26.27
2023-03-03T07:03:29.572Z,26.67
2023-03-03T07:05:56.538Z,24.80
2023-03-03T07:08:24.708Z,29.00
2023-03-03T07:10:53.477Z,27.10
2023-03-03T07:13:26.249Z,26.48
2023-03-03T07:15:55.442Z,29.50
2023-03-03T07:18:32.712Z,30.88
2023-03-03T07:21:06.392Z,28.40
2023-03-03T07:23:42.791Z,30.00
2023-03-03T07:26:24.089Z,30.23
2023-03-03T07:29:27.972Z,32.33
2023-03-03T07:32:01.893Z,30.83
2023-03-03T07:34:40.253Z,29.60
2023-03-03T07:37:33.253Z,29.27
2023-03-03T07:40:01.592Z,31.35
2023-03-03T07:42:41.361Z,30.38
2023-03-03T07:45:35.028Z,34.28
2023-03-03T07:48:13.801Z,32.30
2023-03-03T07:50:41.877Z,35.47
2023-03-03T07:53:26.480Z,26.67
2023-03-03T07:55:53.631Z,26.60
2023-03-03T07:58:40.863Z,30.88
2023-03-03T08:01:39.906Z,25.60
2023-03-03T08:04:28.841Z,31.65
2023-03-03T08:06:57.519Z,29.08
2023-03-03T08:09:47.760Z,30.67
2023-03-03T08:12:29.182Z,32.97
2023-03-03T08:14:58.425Z,28.23
2023-03-03T08:17:31.768Z,31.63
2023-03-03T08:19:58.978Z,30.67
2023-03-03T08:22:33.487Z,39.67
2023-03-03T08:25:00.336Z,32.47
2023-03-03T08:27:27.127Z,35.70
2023-03-03T08:29:54.260Z,36.90
2023-03-03T08:32:21.254Z,33.75
2023-03-03T08:34:48.506Z,33.93
2023-03-03T08:37:15.330Z,35.15
2023-03-03T08:39:43.015Z,32.58
2023-03-03T08:42:09.958Z,43.25
2023-03-03T08:44:36.928Z,32.20
2023-03-03T08:47:03.936Z,35.17
2023-03-03T08:49:31.148Z,42.20
2023-03-03T08:51:58.261Z,32.15
2023-03-03T08:54:25.096Z,34.97
2023-03-03T08:56:52.094Z,38.22
2023-03-03T08:59:20.417Z,33.78
2023-03-03T09:01:47.569Z,30.10
2023-03-03T09:04:14.692Z,28.27
2023-03-03T09:06:41.726Z,32.05
2023-03-03T09:09:08.591Z,31.75
2023-03-03T09:11:35.665Z,27.88
2023-03-03T09:14:17.636Z,27.25
2023-03-03T09:16:54.943Z,32.70
2023-03-03T09:19:36.066Z,29.13
2023-03-03T09:22:20.090Z,32.58
2023-03-03T09:24:48.927Z,31.13
2023-03-03T09:27:22.668Z,35.47
2023-03-03T09:29:49.661Z,30.65
2023-03-03T09:32:34.520Z,32.00
2023-03-03T09:35:37.902Z,26.80
2023-03-03T09:38:28.738Z,32.95
2023-03-03T09:41:09.841Z,32.10
2023-03-03T09:43:55.947Z,23.65
2023-03-03T09:46:31.877Z,25.05
2023-03-03T09:48:59.430Z,26.10
2023-03-03T09:51:32.727Z,23.45
2023-03-03T09:53:59.738Z,27.95
2023-03-03T09:56:51.734Z,28.92
2023-03-03T09:59:35.011Z,26.35
2023-03-03T10:02:26.469Z,33.20
2023-03-03T10:05:08.510Z,26.08
2023-03-03T10:08:02.463Z,25.73
2023-03-03T10:10:45.683Z,25.88
2023-03-03T10:13:33.059Z,24.58
2023-03-03T10:16:25.700Z,27.70
2023-03-03T10:19:15.398Z,26.00
2023-03-03T10:22:17.506Z,23.95
2023-03-03T10:25:09.044Z,26.80
2023-03-03T10:27:47.925Z,30.08
2023-03-03T10:30:42.460Z,29.58
2023-03-03T10:33:33.512Z,31.70
2023-03-03T10:36:19.328Z,30.08
2023-03-03T10:38:49.581Z,28.83
2023-03-03T10:41:25.414Z,25.70
2023-03-03T10:43:58.317Z,24.20
2023-03-03T10:46:33.291Z,25.10
2023-03-03T10:49:18.893Z,32.35
2023-03-03T10:52:01.075Z,24.73
2023-03-03T10:54:37.241Z,28.55
2023-03-03T10:57:26.518Z,27.75
2023-03-03T11:00:17.000Z,27.45
2023-03-03T11:03:20.104Z,27.80
2023-03-03T11:05:55.147Z,26.08
2023-03-03T11:08:35.172Z,26.80
2023-03-03T11:11:12.562Z,29.85
2023-03-03T11:13:59.942Z,26.38
2023-03-03T11:16:53.385Z,27.60
2023-03-03T11:19:48.522Z,27.17
2023-03-03T11:22:49.432Z,25.48
2023-03-03T11:25:32.789Z,24.17
2023-03-03T11:28:38.697Z,23.33
2023-03-03T11:31:28.349Z,22.95
2023-03-03T11:34:15.539Z,23.55
2023-03-03T11:36:42.718Z,22.30
2023-03-03T11:39:16.987Z,28.60
2023-03-03T11:42:23.785Z,27.50
2023-03-03T11:45:16.413Z,24.50
2023-03-03T11:48:04.091Z,23.67
2023-03-03T11:50:45.413Z,21.80
2023-03-03T11:53:29.924Z,23.45
2023-03-03T11:56:19.149Z,23.23
2023-03-03T11:59:03.671Z,22.08
2023-03-03T12:01:41.105Z,18.92
2023-03-03T12:04:27.648Z,23.20
2023-03-03T12:07:18.490Z,21.90
2023-03-03T12:10:13.303Z,19.75
2023-03-03T12:12:55.558Z,19.42
2023-03-03T12:15:37.576Z,21.83
2023-03-03T12:18:07.429Z,18.05
2023-03-03T12:21:05.150Z,18.17
2023-03-03T12:24:04.790Z,17.98
2023-03-03T12:26:47.732Z,17.98
2023-03-03T12:29:34.835Z,14.73
2023-03-03T12:32:29.733Z,13.75
2023-03-03T12:34:56.935Z,14.48
2023-03-03T12:37:52.626Z,15.82
2023-03-03T12:40:32.698Z,15.80
2023-03-03T12:43:33.415Z,15.05
2023-03-03T12:46:28.529Z,14.80
2023-03-03T12:48:56.149Z,16.95
2023-03-03T12:51:45.464Z,19.80
2023-03-03T12:54:18.396Z,16.27
2023-03-03T12:56:56.158Z,14.20
2023-03-03T12:59:25.842Z,13.93
2023-03-03T13:02:20.369Z,15.77
2023-03-03T13:05:26.096Z,12.93
2023-03-03T13:08:06.476Z,13.50
2023-03-03T13:10:46.131Z,15.02
2023-03-03T13:13:26.250Z,15.57
2023-03-03T13:16:07.068Z,14.32
2023-03-03T13:18:55.722Z,13.80
2023-03-03T13:21:32.130Z,15.90
2023-03-03T13:24:16.106Z,15.18
2023-03-03T13:27:06.334Z,16.52
2023-03-03T13:29:42.002Z,12.40
2023-03-03T13:32:24.378Z,14.80
2023-03-03T13:35:13.806Z,13.45
2023-03-03T13:37:45.543Z,11.10
2023-03-03T13:40:17.971Z,12.20
2023-03-03T13:43:02.655Z,11.98
2023-03-03T13:45:52.492Z,16.42
2023-03-03T13:48:33.292Z,16.98
2023-03-03T13:51:10.531Z,12.30
2023-03-03T13:54:16.624Z,11.40
2023-03-03T13:57:07.546Z,13.63
2023-03-03T13:59:58.478Z,11.45
2023-03-03T14:02:49.496Z,12.45
2023-03-03T14:05:23.762Z,14.68
2023-03-03T14:08:01.693Z,11.60
2023-03-03T14:10:35.817Z,14.50
2023-03-03T14:13:10.786Z,11.52
2023-03-03T14:16:17.265Z,16.10
2023-03-03T14:18:58.158Z,15.85
2023-03-03T14:21:53.246Z,12.90
2023-03-03T14:24:23.336Z,17.08
2023-03-03T14:26:58.584Z,11.98
2023-03-03T14:29:28.460Z,12.13
2023-03-03T14:32:20.161Z,12.50
2023-03-03T14:35:02.599Z,11.88
2023-03-03T14:37:43.663Z,13.50
2023-03-03T14:40:21.310Z,12.57
2023-03-03T14:42:52.974Z,14.32
2023-03-03T14:45:41.925Z,11.23
2023-03-03T14:48:18.612Z,16.00
2023-03-03T14:51:17.646Z,10.23
2023-03-03T14:53:47.976Z,10.88
2023-03-03T14:56:28.932Z,14.32
2023-03-03T14:59:21.197Z,14.02
2023-03-03T15:01:56.853Z,16.33
2023-03-03T15:04:27.247Z,13.23
2023-03-03T15:06:55.572Z,18.35
2023-03-03T15:09:29.863Z,21.77
2023-03-03T15:11:58.663Z,19.98
2023-03-03T15:14:47.622Z,23.65
2023-03-03T15:17:26.179Z,24.52
2023-03-03T15:20:32.348Z,20.38
2023-03-03T15:23:20.618Z,24.85
2023-03-03T15:25:59.145Z,30.63
2023-03-03T15:28:43.785Z,19.73
2023-03-03T15:31:30.266Z,23.08
2023-03-03T15:34:23.105Z,24.85
2023-03-03T15:36:56.085Z,28.73
2023-03-03T15:39:44.844Z,25.95
2023-03-03T15:42:15.698Z,28.95
2023-03-03T15:45:10.135Z,23.23
2023-03-03T15:47:58.444Z,23.73
2023-03-03T15:50:34.642Z,25.70
2023-03-03T15:53:09.532Z,20.65
2023-03-03T15:56:05.280Z,19.63
2023-03-03T15:59:14.418Z,19.48
2023-03-03T16:02:15.092Z,23.80
2023-03-03T16:04:54.611Z,30.50
2023-03-03T16:07:54.225Z,28.88
2023-03-03T16:10:46.149Z,21.45
2023-03-03T16:13:36.165Z,18.85
2023-03-03T16:16:25.525Z,18.83
2023-03-03T16:19:22.414Z,25.17
2023-03-03T16:22:09.963Z,26.38
2023-03-03T16:24:40.025Z,24.85
2023-03-03T16:27:23.633Z,24.83
2023-03-03T16:29:56.184Z,22.42
2023-03-03T16:32:31.510Z,18.08
2023-03-03T16:35:08.189Z,16.98
2023-03-03T16:37:53.808Z,18.38
2023-03-03T16:40:25.852Z,15.50
2023-03-03T16:43:05.182Z,17.17
2023-03-03T16:45:38.199Z,22.08
2023-03-03T16:48:23.070Z,21.08
2023-03-03T16:51:15.056Z,19.23
2023-03-03T16:53:47.323Z,25.70
2023-03-03T16:56:18.440Z,24.08
2023-03-03T16:59:13.481Z,23.00
2023-03-03T17:02:12.851Z,24.92
2023-03-03T17:04:59.153Z,25.38
2023-03-03T17:07:26.156Z,21.13
2023-03-03T17:10:17.537Z,22.13
2023-03-03T17:13:05.930Z,19.23
2023-03-03T17:15:59.578Z,21.20
2023-03-03T17:18:44.139Z,17.52
2023-03-03T17:21:29.941Z,20.60
2023-03-03T17:24:02.512Z,16.92
2023-03-03T17:26:53.523Z,18.75
2023-03-03T17:29:23.224Z,18.95
2023-03-03T17:32:21.353Z,20.48
2023-03-03T17:35:13.333Z,17.85
2023-03-03T17:38:07.077Z,22.75
2023-03-03T17:40:51.357Z,19.75
2023-03-03T17:43:28.614Z,27.23
2023-03-03T17:45:59.846Z,20.58
2023-03-03T17:49:08.061Z,21.27
2023-03-03T17:52:21.361Z,15.50
2023-03-03T17:55:07.248Z,21.38
2023-03-03T17:57:51.482Z,24.58
2023-03-03T18:00:45.441Z,15.73
2023-03-03T18:03:32.994Z,20.48
2023-03-03T18:06:26.137Z,11.35
2023-03-03T18:09:17.860Z,11.25
2023-03-03T18:12:04.898Z,9.55
2023-03-03T18:14:57.363Z,17.55
2023-03-03T18:17:26.818Z,13.40
2023-03-03T18:20:26.854Z,12.10
2023-03-03T18:22:54.654Z,10.52
2023-03-03T18:25:26.990Z,10.35
2023-03-03T18:28:00.289Z,12.57
2023-03-03T18:30:42.072Z,11.43
2023-03-03T18:33:13.674Z,8.10
2023-03-03T18:35:44.227Z,11.48
2023-03-03T18:38:21.413Z,9.27
2023-03-03T18:41:03.977Z,12.68
2023-03-03T18:43:44.596Z,15.75
2023-03-03T18:46:21.006Z,8.43
2023-03-03T18:48:54.492Z,10.80
2023-03-03T18:51:40.103Z,10.98
2023-03-03T18:54:13.769Z,15.30
2023-03-03T18:56:46.835Z,9.73
2023-03-03T18:59:52.855Z,10.88
2023-03-03T19:02:22.840Z,9.50
2023-03-03T19:05:14.150Z,13.93
2023-03-03T19:07:41.193Z,10.57
2023-03-03T19:10:46.763Z,13.82
2023-03-03T19:13:32.723Z,11.02
2023-03-03T19:16:05.021Z,14.95
2023-03-03T19:18:43.865Z,10.80
2023-03-03T19:21:36.163Z,15.32
2023-03-03T19:24:23.094Z,14.85
2023-03-03T19:27:05.527Z,12.45
2023-03-03T19:29:47.572Z,13.15
2023-03-03T19:32:28.370Z,14.40
2023-03-03T19:35:21.228Z,14.95
2023-03-03T19:37:49.175Z,12.50
2023-03-03T19:40:42.620Z,13.65
2023-03-03T19:43:24.243Z,18.17
2023-03-03T19:45:54.066Z,14.48
2023-03-03T19:48:45.358Z,11.88
2023-03-03T19:51:21.626Z,10.77
2023-03-03T19:54:20.898Z,13.20
2023-03-03T19:56:55.006Z,13.60
2023-03-03T19:59:49.985Z,11.27
2023-03-03T20:03:14.359Z,13.30
2023-03-03T20:06:20.069Z,18.58
2023-03-03T20:09:05.237Z,14.82
2023-03-03T20:11:48.400Z,13.57
2023-03-03T20:14:40.250Z,13.18
2023-03-03T20:17:32.261Z,11.73
2023-03-03T20:20:30.769Z,7.35
2023-03-03T20:23:06.281Z,9.07
2023-03-03T20:25:55.422Z,7.43
2023-03-03T20:28:52.693Z,7.22
2023-03-03T20:31:35.852Z,8.60
2023-03-03T20:34:05.700Z,6.63
2023-03-03T20:36:53.589Z,5.68
2023-03-03T20:39:36.127Z,11.75
2023-03-03T20:42:23.916Z,8.32
2023-03-03T20:44:55.172Z,11.32
2023-03-03T20:47:42.804Z,7.18
2023-03-03T20:50:16.447Z,8.07
2023-03-03T20:53:05.703Z,5.22
2023-03-03T20:56:08.632Z,5.30
2023-03-03T20:59:13.537Z,8.10
2023-03-03T21:01:58.491Z,9.02
2023-03-03T21:04:34.010Z,7.30
2023-03-03T21:07:03.442Z,4.15
2023-03-03T21:09:45.499Z,4.68
2023-03-03T21:12:28.991Z,6.07
2023-03-03T21:15:05.630Z,8.77
2023-03-03T21:17:36.028Z,6.78
2023-03-03T21:20:32.227Z,6.80
2023-03-03T21:23:02.064Z,5.45
2023-03-03T21:25:41.541Z,5.68
2023-03-03T21:28:20.519Z,8.15
2023-03-03T21:31:01.936Z,4.93
2023-03-03T21:33:58.272Z,9.85
2023-03-03T21:36:46.313Z,4.90
2023-03-03T21:39:27.766Z,9.52
2023-03-03T21:41:58.290Z,14.40
2023-03-03T21:44:38.365Z,10.73
2023-03-03T21:47:11.863Z,11.45
2023-03-03T21:49:47.658Z,11.93
2023-03-03T21:52:16.964Z,7.93
2023-03-03T21:54:45.162Z,8.02
2023-03-03T21:57:13.280Z,8.07
2023-03-03T21:59:40.541Z,11.90
2023-03-03T22:02:08.411Z,9.98
2023-03-03T22:04:39.867Z,8.98
2023-03-03T22:07:07.189Z,4.32
2023-03-03T22:09:35.512Z,12.38
2023-03-03T22:12:03.264Z,5.93
2023-03-03T22:14:30.622Z,8.65
2023-03-03T22:17:04.186Z,13.27
2023-03-03T22:19:31.452Z,7.13
2023-03-03T22:21:58.325Z,7.07
2023-03-03T22:24:25.699Z,12.80
2023-03-03T22:26:53.108Z,9.02
2023-03-03T22:29:25.369Z,10.43
2023-03-03T22:31:52.531Z,8.35
2023-03-03T22:34:20.644Z,9.52
2023-03-03T22:36:47.432Z,10.93
2023-03-03T22:39:14.219Z,14.63
2023-03-03T22:41:41.182Z,7.95
2023-03-03T22:44:08.179Z,9.88
2023-03-03T22:46:35.562Z,9.90
2023-03-03T22:49:02.607Z,8.85
2023-03-03T22:51:29.877Z,9.40
2023-03-03T22:53:56.737Z,13.88
2023-03-03T22:56:23.591Z,9.65
2023-03-03T22:58:50.499Z,7.95
2023-03-03T23:01:18.405Z,8.93
2023-03-03T23:03:45.388Z,12.02
2023-03-03T23:06:12.457Z,13.05
2023-03-03T23:08:39.323Z,10.18
2023-03-03T23:11:06.312Z,10.10
2023-03-03T23:13:35.280Z,10.07
2023-03-03T23:16:03.179Z,15.27
2023-03-03T23:18:30.236Z,17.23
2023-03-03T23:20:57.209Z,20.33
2023-03-03T23:23:24.501Z,13.75
2023-03-03T23:25:51.479Z,13.95
2023-03-03T23:28:19.404Z,14.70
2023-03-03T23:30:46.301Z,9.55
2023-03-03T23:33:13.129Z,18.90
2023-03-03T23:35:40.327Z,14.98
2023-03-03T23:38:07.390Z,11.30
2023-03-03T23:40:34.292Z,17.58
2023-03-03T23:43:01.343Z,12.60
2023-03-03T23:45:28.159Z,13.65
2023-03-03T23:47:55.049Z,18.45
2023-03-03T23:50:22.023Z,13.88
2023-03-03T23:52:49.059Z,13.77
2023-03-03T23:55:16.367Z,20.58
2023-03-03T23:57:43.231Z,23.35
